Date,TemperatureHighF,TemperatureAvgF,TemperatureLowF,DewpointHighF,DewpointAvgF,DewpointLowF,HumidityHigh,HumidityAvg,HumidityLow,PressureMaxIn,PressureMinIn,WindSpeedMaxMPH,WindSpeedAvgMPH,GustSpeedMaxMPH,PrecipitationSumIn
2013-1-1,46,36,25,18,15,12,66,44,26,30.56,30.42,7,1,13,0.00
2013-1-2,49,37,27,17,15,13,59,42,25,30.52,30.35,5,1,10,0.00
2013-1-3,50,39,26,15,10,3,56,32,14,30.54,30.41,6,1,12,0.00
2013-1-4,49,37,26,11,9,7,48,33,18,30.56,30.45,3,0,8,0.00
2013-1-5,49,38,27,14,12,9,51,35,22,30.59,30.38,4,0,6,0.00
2013-1-6,50,40,33,20,16,12,51,38,25,30.38,30.14,3,0,7,0.00
2013-1-7,59,44,33,26,17,9,65,37,14,30.28,30.16,13,2,22,0.00
2013-1-8,62,48,35,30,24,13,57,38,29,30.40,30.22,6,1,11,0.00
2013-1-9,59,48,38,32,29,28,68,50,32,30.40,30.02,3,0,6,0.00
2013-1-10,55,46,37,34,22,3,63,39,19,30.03,29.81,15,6,25,0.00
2013-1-11,45,36,28,18,10,6,45,34,21,30.22,30.03,12,2,19,0.00
2013-1-12,41,33,24,11,6,1,54,34,20,30.34,30.21,8,1,13,0.00
2013-1-13,36,29,19,7,5,0,56,37,24,30.44,30.32,12,2,23,0.00
2013-1-14,36,29,23,5,-1,-3,40,28,18,30.66,30.44,14,8,25,0.00
2013-1-15,43,31,20,13,7,2,46,37,26,30.79,30.65,4,0,10,0.00
2013-1-16,54,39,27,22,18,11,59,43,28,30.73,30.54,4,0,9,0.00
2013-1-17,58,42,30,19,15,13,56,36,17,30.63,30.47,3,0,7,0.00
2013-1-18,57,43,31,16,15,13,47,33,19,30.55,30.41,4,0,7,0.00
2013-1-19,59,44,31,17,13,10,47,30,16,30.56,30.40,4,0,7,0.00
2013-1-20,63,46,33,15,13,10,40,27,14,30.47,30.33,3,0,6,0.00
2013-1-21,63,46,32,13,11,8,39,25,12,30.47,30.33,3,0,7,0.00
2013-1-22,63,48,35,17,13,8,36,25,15,30.42,30.31,4,1,6,0.00
2013-1-23,61,50,40,22,17,13,38,28,18,30.40,30.28,3,0,6,0.00
2013-1-24,55,51,48,44,37,21,79,59,30,30.39,30.26,6,0,8,0.03
2013-1-25,61,54,48,49,44,41,88,69,51,30.39,30.14,4,0,10,0.05
2013-1-26,58,52,47,51,49,45,95,90,74,30.15,29.94,4,0,6,0.38
2013-1-27,59,52,44,47,39,29,95,61,46,30.00,29.92,17,9,27,0.01
2013-1-28,49,44,41,31,20,10,62,38,23,30.22,29.99,14,5,24,0.01
2013-1-29,55,45,34,30,25,18,66,46,33,30.41,30.17,6,2,14,0.00
2013-1-30,61,47,36,33,30,27,73,53,31,30.50,30.37,3,0,9,0.00
2013-1-31,63,53,38,35,33,31,78,49,32,30.46,30.31,2,0,7,0.00
2013-2-1,63,50,37,36,33,31,81,54,32,30.41,30.31,4,0,8,0.00
2013-2-2,64,53,42,36,32,27,72,47,25,30.48,30.31,3,0,6,0.00
2013-2-3,65,56,48,37,34,30,57,44,30,30.32,30.13,4,0,6,0.00
2013-2-4,66,53,42,35,30,25,67,43,21,30.27,30.13,4,0,8,0.00
2013-2-5,65,53,40,32,28,25,58,40,23,30.17,29.97,6,0,9,0.00
2013-2-6,69,57,45,32,24,16,53,30,14,30.18,29.94,12,3,19,0.00
2013-2-7,67,53,40,27,23,18,52,33,18,30.23,29.88,10,2,20,0.00
2013-2-8,55,48,40,32,25,19,56,41,25,29.88,29.80,20,8,31,0.00
2013-2-9,53,45,38,28,24,20,63,45,29,30.12,29.86,11,1,18,0.00
2013-2-10,56,44,36,26,19,15,51,38,22,30.19,30.05,11,3,21,0.00
2013-2-11,51,44,38,26,14,7,55,32,18,30.39,30.19,13,5,27,0.00
2013-2-12,53,42,29,18,14,12,50,34,21,30.53,30.39,4,0,9,0.00
2013-2-13,61,47,33,25,21,16,54,37,24,30.47,30.30,3,0,9,0.00
2013-2-14,65,52,39,28,25,22,56,37,20,30.43,30.30,10,3,17,0.00
2013-2-15,65,52,37,26,22,19,58,34,17,30.54,30.43,7,2,12,0.00
2013-2-16,64,51,38,24,21,19,52,33,18,30.50,30.13,3,0,7,0.00
2013-2-17,71,54,37,22,16,9,48,24,11,30.13,29.91,7,1,12,0.00
2013-2-18,60,51,39,22,19,13,47,29,19,30.20,29.99,6,1,12,0.00
2013-2-19,64,49,35,29,23,19,53,38,19,29.99,29.67,17,6,28,0.00
2013-2-20,55,46,39,39,31,25,82,57,36,30.00,29.63,14,3,25,0.03
2013-2-21,54,42,32,34,22,14,82,48,22,30.22,29.99,5,0,10,0.01
2013-2-22,56,44,32,19,15,12,47,32,19,30.36,30.22,4,0,10,0.00
2013-2-23,62,47,36,24,17,1,53,32,12,30.25,29.96,18,6,28,0.00
2013-2-24,56,47,40,13,8,3,31,21,12,30.38,30.21,20,10,30,0.00
2013-2-25,57,44,30,15,12,10,45,29,16,30.43,30.16,7,1,11,0.00
2013-2-26,57,46,32,16,11,5,45,25,13,30.42,30.21,14,4,21,0.00
2013-2-27,57,45,31,15,9,1,44,25,11,30.55,30.41,7,2,14,0.00
2013-2-28,64,49,33,15,10,6,34,22,12,30.59,30.47,3,0,7,0.00
2013-3-1,72,56,40,28,21,13,36,26,18,30.60,30.40,6,1,10,0.00
2013-3-2,73,60,45,31,28,21,46,31,20,30.45,30.13,9,1,14,0.00
2013-3-3,76,67,58,35,28,21,38,24,18,30.12,29.83,20,12,34,0.00
2013-3-4,72,61,50,39,32,24,54,36,18,30.18,29.90,12,3,21,0.00
2013-3-5,72,59,43,32,29,28,54,35,20,30.22,29.98,13,2,22,0.00
2013-3-6,68,60,53,35,31,27,48,34,22,30.02,29.91,24,10,32,0.00
2013-3-7,61,55,48,33,31,27,54,41,29,30.00,29.89,19,5,29,0.00
2013-3-8,54,47,43,42,37,32,83,68,51,29.96,29.78,20,3,26,0.17
2013-3-9,61,51,43,40,36,30,89,59,32,30.31,29.96,12,3,21,0.02
2013-3-10,66,56,45,36,23,18,70,31,17,30.44,30.29,11,4,19,0.00
2013-3-11,72,57,41,29,25,23,52,32,17,30.37,30.17,3,0,9,0.00
2013-3-12,77,61,46,32,29,26,49,31,17,30.29,30.17,5,1,9,0.00
2013-3-13,82,65,50,35,31,29,48,30,16,30.34,30.19,5,1,9,0.00
2013-3-14,86,68,53,34,30,25,42,25,12,30.29,30.10,4,0,8,0.00
2013-3-15,86,70,54,36,29,15,46,24,7,30.11,29.89,8,2,12,0.00
2013-3-16,85,72,56,32,22,6,35,17,6,29.92,29.75,9,2,20,0.00
2013-3-17,80,71,62,25,14,-1,20,12,5,29.96,29.76,9,4,23,0.00
2013-3-18,76,65,49,21,13,8,30,14,8,30.09,29.91,9,2,13,0.00
2013-3-19,77,67,55,25,21,14,27,17,12,30.10,29.95,8,2,14,0.00
2013-3-20,75,68,61,35,30,22,32,24,18,30.07,29.83,21,7,29,0.00
2013-3-21,79,66,54,35,21,1,47,23,6,29.93,29.77,16,4,25,0.00
2013-3-22,74,63,51,16,4,-29,21,11,2,29.93,29.78,15,4,25,0.00
2013-3-23,61,52,45,10,6,-29,22,16,2,30.27,29.92,18,5,29,0.00
2013-3-24,70,55,40,15,8,3,28,16,8,30.25,30.05,5,1,11,0.00
2013-3-25,74,60,45,19,15,11,31,19,10,30.16,29.97,6,1,10,0.00
2013-3-26,79,67,53,31,20,12,27,18,9,29.98,29.80,13,6,21,0.00
2013-3-27,77,67,54,36,30,25,41,27,15,29.96,29.84,14,5,22,0.00
2013-3-28,78,67,57,39,35,30,48,32,20,30.06,29.96,12,5,21,0.00
2013-3-29,81,69,54,35,32,26,45,27,17,30.16,30.03,6,2,15,0.00
2013-3-30,86,70,58,33,29,-100,33,23,14,30.12,29.98,5,1,11,0.00
2013-3-31,79,69,54,40,34,27,43,28,16,30.02,29.88,16,8,25,0.00
2013-4-1,76,65,55,41,35,27,55,35,20,30.03,29.94,18,6,26,0.00
2013-4-2,76,65,53,32,30,28,41,28,19,30.08,29.98,15,3,21,0.00
2013-4-3,82,68,53,38,32,28,47,29,14,30.18,30.03,4,1,12,0.00
2013-4-4,86,70,55,41,31,24,42,25,12,30.09,29.88,19,4,28,0.00
2013-4-5,83,72,59,40,34,22,46,27,13,29.98,29.85,19,6,28,0.00
2013-4-6,84,71,57,35,30,23,40,24,12,29.99,29.84,8,2,13,0.00
2013-4-7,86,72,58,35,29,16,38,22,8,29.91,29.56,16,4,27,0.00
2013-4-8,70,59,46,42,31,19,77,37,15,29.70,29.36,23,10,34,0.06
2013-4-9,68,58,51,24,20,16,28,23,14,30.16,29.70,18,12,29,0.02
2013-4-10,73,61,47,24,20,14,35,22,12,30.24,30.02,9,3,19,0.00
2013-4-11,78,64,50,26,22,18,33,21,12,30.04,29.79,4,0,8,0.00
2013-4-12,83,68,53,33,29,20,41,25,15,29.95,29.78,5,1,10,0.00
2013-4-13,85,74,60,32,26,20,28,18,9,29.84,29.54,19,10,30,0.00
2013-4-14,86,73,61,38,32,26,37,23,15,29.72,29.46,18,6,28,0.00
2013-4-15,77,67,59,34,30,23,36,26,14,29.63,29.48,21,13,34,0.00
2013-4-16,64,56,50,34,27,20,48,33,20,29.99,29.60,19,8,34,0.00
2013-4-17,64,55,48,28,18,6,43,25,11,30.31,29.99,14,8,25,0.00
2013-4-18,66,56,47,21,12,6,31,18,10,30.41,30.29,9,3,19,0.00
2013-4-19,77,62,45,18,12,8,26,15,8,30.36,30.01,7,2,11,0.00
2013-4-20,80,69,53,30,21,11,25,17,10,30.12,29.98,10,2,16,0.00
2013-4-21,90,72,52,27,20,10,30,16,6,30.11,29.88,11,2,21,0.00
2013-4-22,91,79,61,27,23,8,25,13,7,29.94,29.69,14,3,22,0.00
2013-4-23,78,65,57,23,13,5,20,14,7,30.15,29.76,20,8,28,0.00
2013-4-24,77,65,48,14,7,-4,23,11,4,30.09,29.91,8,2,16,0.00
2013-4-25,84,70,54,18,13,6,21,12,6,29.99,29.89,8,2,16,0.00
2013-4-26,87,74,58,32,22,13,30,15,7,30.17,29.99,6,2,13,0.00
2013-4-27,90,76,57,21,16,11,24,11,6,30.19,29.97,7,1,12,0.00
2013-4-28,96,80,61,23,17,13,20,10,5,29.99,29.77,8,2,15,0.00
2013-4-29,98,84,67,30,21,13,22,11,5,29.83,29.59,14,4,20,0.00
2013-4-30,93,84,73,38,31,23,23,15,9,29.69,29.55,14,8,24,0.00
2013-5-1,80,71,62,30,-3,-20,18,6,2,30.36,29.69,16,10,27,0.00
2013-5-2,77,66,56,9,3,-6,12,8,4,30.50,30.22,18,8,30,0.00
2013-5-3,86,69,54,19,6,-14,21,10,2,30.24,29.81,7,1,11,0.00
2013-5-4,91,77,57,24,8,-2,16,8,4,29.81,29.58,14,5,22,0.00
2013-5-5,81,73,66,28,22,13,24,15,9,29.81,29.67,15,8,27,0.00
2013-5-6,78,68,60,40,36,29,42,32,21,29.92,29.80,19,8,29,0.00
2013-5-7,71,63,56,42,38,34,52,41,26,30.00,29.91,14,5,27,0.00
2013-5-8,75,64,54,41,39,36,52,40,27,30.12,30.00,13,2,19,0.00
2013-5-9,77,67,56,45,40,36,48,37,25,30.09,30.01,12,3,20,0.00
2013-5-10,86,72,58,45,37,-100,52,32,13,30.15,30.03,10,2,18,0.00
2013-5-11,92,78,62,41,33,-100,37,22,11,30.19,30.06,7,2,21,0.00
2013-5-12,97,83,65,33,27,24,25,14,8,30.16,29.96,7,1,13,0.00
2013-5-13,102,87,68,34,26,20,26,12,6,30.03,29.83,9,2,14,0.00
2013-5-14,100,89,76,34,26,4,20,11,4,29.85,29.66,18,8,29,0.00
2013-5-15,97,83,70,36,30,22,26,15,9,29.86,29.71,20,7,31,0.00
2013-5-16,92,77,70,34,14,-100,25,15,6,29.78,29.64,17,10,28,0.00
2013-5-17,84,74,68,40,32,-100,34,25,18,29.88,29.69,22,12,31,0.00
2013-5-18,88,76,63,41,34,19,41,24,9,29.96,29.82,8,2,19,0.00
2013-5-19,85,76,63,36,27,17,27,17,10,29.99,29.84,16,6,24,0.00
2013-5-20,84,74,65,35,24,17,31,17,9,30.11,29.95,16,4,25,0.00
2013-5-21,92,78,61,36,24,5,25,15,4,29.98,29.66,19,5,26,0.00
2013-5-22,90,80,71,33,24,-1,22,14,3,29.67,29.53,22,13,35,0.00
2013-5-23,86,74,63,32,14,-13,25,13,2,29.82,29.59,23,11,34,0.00
2013-5-24,91,77,58,23,15,7,19,10,6,29.92,29.77,13,4,21,0.00
2013-5-25,90,78,67,30,20,3,25,13,4,29.88,29.79,16,9,26,0.00
2013-5-26,88,78,67,32,29,25,25,17,10,29.88,29.78,17,11,28,0.00
2013-5-27,93,79,64,35,29,22,30,18,8,29.88,29.68,17,5,22,0.00
2013-5-28,91,80,68,35,29,16,27,17,9,29.72,29.58,15,7,25,0.00
2013-5-29,93,80,68,37,32,16,26,18,10,29.80,29.60,10,4,16,0.00
2013-5-30,97,84,67,37,29,21,28,15,7,29.84,29.65,13,4,21,0.00
2013-5-31,95,85,71,27,21,15,19,10,6,29.93,29.72,11,4,27,0.00
2013-6-1,96,83,71,27,18,8,17,9,4,29.98,29.75,9,3,17,0.00
2013-6-2,104,88,69,32,19,11,19,9,4,29.77,29.57,15,4,25,0.00
2013-6-3,102,91,76,38,29,18,24,12,5,29.71,29.60,12,5,20,0.00
2013-6-4,101,89,74,37,26,13,22,11,4,29.80,29.68,11,3,18,0.00
2013-6-5,103,90,75,34,26,20,18,10,6,29.86,29.69,8,2,12,0.00
2013-6-6,106,93,74,35,27,20,21,10,5,29.82,29.65,6,2,11,0.00
2013-6-7,109,94,75,34,23,10,19,9,3,29.78,29.62,6,2,11,0.00
2013-6-8,110,96,80,29,24,18,15,8,4,29.71,29.61,13,3,23,0.00
2013-6-9,109,95,80,41,28,13,21,10,4,29.79,29.66,15,5,23,0.00
2013-6-10,100,89,79,41,26,6,20,11,4,29.76,29.64,19,9,28,0.00
2013-6-11,102,87,71,37,32,24,28,15,7,29.92,29.73,12,4,23,0.00
2013-6-12,104,93,81,35,30,21,16,11,6,29.84,29.70,19,8,29,0.00
2013-6-13,99,87,78,40,27,-8,25,14,2,29.83,29.70,18,11,26,0.00
2013-6-14,101,84,67,23,12,-10,17,8,2,29.85,29.68,10,3,17,0.00
2013-6-15,100,81,70,20,9,-9,11,7,2,29.81,29.73,16,3,23,0.00
2013-6-16,94,80,73,25,15,6,14,9,4,29.91,29.79,12,5,19,0.00
2013-6-17,102,84,73,26,16,-2,15,9,2,29.90,29.73,10,3,17,0.00
2013-6-18,101,88,77,27,20,-4,14,9,2,29.77,29.59,20,10,34,0.00
2013-6-19,96,85,73,37,24,8,23,13,4,29.73,29.61,17,7,26,0.00
2013-6-20,97,80,69,15,10,3,10,7,4,29.78,29.67,12,3,21,0.00
2013-6-21,96,95,94,18,18,17,6,6,6,29.74,29.67,11,10,18,0.00
2013-6-22,99,91,71,25,21,16,17,8,5,29.83,29.66,7,3,13,0.00
2013-6-23,99,88,74,35,28,19,20,12,6,29.71,29.55,17,7,25,0.00
2013-6-24,89,82,73,46,39,30,31,22,14,29.78,29.60,20,10,29,0.00
2013-6-25,98,86,72,49,46,43,43,27,16,29.89,29.76,16,8,26,0.00
2013-6-26,104,93,80,52,48,42,35,23,14,29.92,29.80,14,7,24,0.00
2013-6-27,108,96,78,49,44,36,34,18,11,29.99,29.84,7,2,17,0.00
2013-6-28,112,98,82,47,42,36,26,16,8,29.92,29.72,5,1,12,0.00
2013-6-29,114,102,86,44,38,32,20,12,7,29.80,29.63,7,1,13,0.00
2013-6-30,116,102,87,41,36,32,19,11,6,29.75,29.59,8,1,15,0.00
2013-7-1,111,102,92,54,46,41,24,16,11,29.76,29.65,13,4,22,0.00
2013-7-2,113,102,85,48,44,40,26,15,9,29.81,29.64,10,3,19,0.00
2013-7-3,112,101,88,52,44,38,26,16,9,29.76,29.57,11,2,15,0.00
2013-7-4,112,101,87,48,44,40,24,15,10,29.66,29.51,14,3,22,0.00
2013-7-5,109,98,86,54,49,41,31,20,11,29.68,29.55,18,5,29,0.00
2013-7-6,104,94,86,57,49,43,36,23,13,29.73,29.60,11,6,18,0.01
2013-7-7,103,93,83,58,47,35,42,22,12,29.77,29.63,8,2,19,0.01
2013-7-8,106,92,79,46,33,18,27,15,5,29.88,29.73,15,3,26,0.00
2013-7-9,108,96,82,36,28,20,14,9,5,29.94,29.81,13,7,24,0.00
2013-7-10,108,94,85,59,42,-100,35,18,11,29.88,29.70,15,4,25,0.00
2013-7-11,91,86,80,63,58,43,53,39,20,29.88,29.75,16,6,26,0.02
2013-7-12,92,84,78,64,60,58,58,46,33,29.93,29.82,10,1,17,0.02
2013-7-13,102,90,75,60,54,37,58,34,12,29.94,29.77,11,2,20,0.00
2013-7-14,104,92,80,56,49,41,30,23,17,29.90,29.73,7,2,14,0.00
2013-7-15,106,96,85,55,49,41,34,22,14,29.78,29.61,12,4,22,0.00
2013-7-16,105,93,83,49,40,34,20,16,12,29.85,29.70,13,6,25,0.00
2013-7-17,105,93,81,50,38,13,20,15,6,29.97,29.81,8,3,15,0.00
2013-7-18,108,96,79,54,31,13,24,11,6,29.93,29.72,8,2,14,0.00
2013-7-19,108,94,79,66,54,41,63,28,11,29.83,29.65,16,3,23,0.22
2013-7-20,105,89,75,68,60,-100,72,42,24,29.85,29.65,17,3,31,0.22
2013-7-21,90,82,76,67,65,62,75,56,43,29.91,29.75,11,3,18,0.07
2013-7-22,96,86,76,66,63,56,70,48,30,29.97,29.83,11,2,21,0.00
2013-7-23,94,86,77,64,60,58,56,43,31,29.97,29.83,12,1,17,0.00
2013-7-24,105,93,79,61,57,50,52,33,17,29.90,29.72,8,2,16,0.00
2013-7-25,108,97,84,57,52,48,32,23,14,29.88,29.74,12,3,21,0.00
2013-7-26,103,92,83,60,56,48,41,30,20,29.96,29.86,12,4,20,0.00
2013-7-27,90,84,77,64,61,58,59,47,35,30.03,29.82,13,4,24,0.00
2013-7-28,95,84,76,67,59,52,68,44,25,29.85,29.75,19,3,28,0.02
2013-7-29,101,86,72,59,50,34,59,35,12,29.94,29.84,12,3,19,0.02
2013-7-30,103,93,80,49,42,33,25,17,13,30.04,29.90,10,4,22,0.00
2013-7-31,106,93,77,53,47,40,40,22,11,30.01,29.80,14,4,25,0.00
2013-8-1,104,93,82,49,30,16,24,12,5,29.87,29.71,21,7,31,0.00
2013-8-2,103,89,77,35,28,21,19,12,6,29.87,29.74,14,7,24,0.00
2013-8-3,104,90,72,35,31,26,25,13,7,29.92,29.79,12,4,22,0.00
2013-8-4,106,91,77,44,34,26,25,14,8,29.91,29.77,12,3,21,0.00
2013-8-5,103,91,78,36,24,12,18,10,5,29.91,29.76,16,5,22,0.00
2013-8-6,102,91,78,35,24,10,18,10,4,29.90,29.78,13,5,20,0.00
2013-8-7,96,86,78,31,23,9,16,11,4,29.93,29.81,14,8,24,0.00
2013-8-8,98,86,75,32,27,17,19,12,6,29.89,29.78,16,7,26,0.00
2013-8-9,100,87,75,30,26,22,17,11,7,29.88,29.77,18,5,25,0.00
2013-8-10,99,87,73,31,25,16,17,11,6,29.93,29.82,16,4,21,0.00
2013-8-11,100,86,71,35,25,15,23,12,5,29.95,29.79,9,2,21,0.00
2013-8-12,102,87,71,30,24,14,20,11,5,29.94,29.79,7,1,18,0.00
2013-8-13,102,87,71,29,19,-100,20,9,5,29.96,29.81,8,2,16,0.00
2013-8-14,105,88,71,31,20,-100,17,10,4,29.95,29.78,8,2,14,0.00
2013-8-15,105,83,74,48,20,-100,18,13,8,29.94,29.78,9,2,16,0.00
2013-8-16,106,93,81,53,44,-100,30,21,14,29.91,29.76,9,2,16,0.00
2013-8-17,107,95,81,52,44,-100,31,19,11,29.88,29.71,12,5,24,0.00
2013-8-18,98,85,74,69,57,51,79,41,23,30.02,29.82,20,2,26,0.21
2013-8-19,97,80,71,67,54,-100,81,52,27,30.08,29.85,9,2,19,0.18
2013-8-20,104,91,78,62,53,-100,59,32,15,29.90,29.73,10,2,17,0.00
2013-8-21,104,91,78,54,48,38,40,24,11,29.90,29.76,10,2,22,0.00
2013-8-22,100,91,80,53,49,43,33,24,16,29.90,29.78,20,5,30,0.00
2013-8-23,93,83,77,60,56,48,52,41,26,29.91,29.76,21,4,32,0.00
2013-8-24,90,81,75,64,56,-100,59,45,32,29.91,29.82,19,3,28,0.00
2013-8-25,90,78,71,66,60,56,70,55,36,30.07,29.91,12,2,21,0.00
2013-8-26,74,72,69,66,64,61,88,76,66,30.09,29.99,4,0,9,0.12
2013-8-27,86,73,67,65,63,62,87,74,46,30.01,29.97,6,1,10,0.13
2013-8-28,98,91,84,65,60,58,52,37,28,29.94,29.82,10,2,17,0.01
2013-8-29,98,87,76,65,63,60,63,45,30,30.01,29.90,10,2,15,0.01
2013-8-30,91,83,74,73,66,61,89,59,42,30.07,29.92,10,2,16,0.18
2013-8-31,89,81,77,69,65,-100,75,61,46,29.99,29.85,12,2,19,0.05
2013-9-1,93,82,74,69,67,65,81,61,42,29.96,29.82,6,1,12,0.01
2013-9-2,99,87,77,66,63,57,66,46,29,29.96,29.78,10,2,18,0.00
2013-9-3,95,86,75,65,60,53,68,45,27,30.00,29.85,8,1,16,0.01
2013-9-4,100,86,77,65,60,52,65,44,23,29.98,29.86,16,2,34,0.04
2013-9-5,100,85,72,64,59,53,73,46,23,29.99,29.87,8,1,25,0.04
2013-9-6,99,85,77,61,57,49,48,39,21,29.94,29.83,16,2,28,0.01
2013-9-7,87,80,77,62,56,-100,59,45,38,29.98,29.88,11,1,15,0.01
2013-9-8,86,77,69,66,63,59,86,63,45,29.98,29.82,6,1,11,0.04
2013-9-9,93,79,71,66,62,56,81,58,33,29.86,29.70,9,1,19,0.04
2013-9-10,84,76,70,64,59,51,80,57,35,29.91,29.83,7,2,13,0.09
2013-9-11,80,73,67,63,60,55,84,64,44,30.02,29.91,11,2,16,0.13
2013-9-12,83,74,66,63,60,57,85,65,42,30.06,29.90,3,0,8,0.11
2013-9-13,91,80,68,63,58,53,77,50,28,29.93,29.70,4,0,14,0.00
2013-9-14,91,79,70,60,55,-100,65,47,29,29.80,29.69,7,0,11,0.05
2013-9-15,96,84,70,60,54,49,63,39,22,29.86,29.75,4,0,10,0.05
2013-9-16,99,87,72,56,51,43,53,32,16,29.88,29.71,10,2,17,0.00
2013-9-17,99,87,76,48,37,22,32,19,8,29.75,29.56,19,6,38,0.00
2013-9-18,81,78,72,36,31,27,25,18,14,29.77,29.63,12,4,19,0.00
2013-9-19,91,79,64,37,32,27,29,19,11,29.92,29.77,9,2,17,0.00
2013-9-20,95,80,63,37,33,27,36,20,10,29.89,29.71,11,2,19,0.00
2013-9-21,94,80,72,42,30,-100,33,18,6,29.78,29.57,19,9,33,0.00
2013-9-22,79,71,62,44,37,31,39,29,21,29.88,29.59,19,8,30,0.00
2013-9-23,87,73,59,35,33,28,33,23,14,30.03,29.88,6,1,11,0.00
2013-9-24,93,77,58,36,30,25,38,20,9,30.01,29.73,16,5,27,0.00
2013-9-25,86,78,69,39,31,16,32,19,8,29.74,29.45,25,16,38,0.00
2013-9-26,73,65,58,36,26,15,35,23,13,29.94,29.55,21,7,31,0.00
2013-9-27,73,65,57,31,28,23,34,25,17,30.14,29.94,14,5,19,0.00
2013-9-28,80,66,53,29,24,-100,36,23,13,30.24,30.11,5,1,10,0.00
2013-9-29,86,71,53,30,25,19,34,19,10,30.17,29.98,7,1,12,0.00
2013-9-30,85,72,57,33,28,22,30,20,13,30.03,29.86,5,1,15,0.00
2013-10-1,89,81,75,32,30,27,19,16,13,29.86,29.81,9,6,16,0.00
2013-10-2,90,80,66,40,35,29,33,20,14,29.89,29.73,14,7,25,0.00
2013-10-3,83,73,62,34,27,3,32,19,8,30.03,29.73,17,7,29,0.00
2013-10-4,69,62,56,24,20,14,24,20,15,30.37,30.04,17,10,26,0.00
2013-10-5,73,62,53,25,22,18,31,21,13,30.48,30.32,11,3,18,0.00
2013-10-6,81,64,49,24,18,11,32,18,8,30.37,30.14,5,1,11,0.00
2013-10-7,79,67,54,30,19,10,27,17,12,30.14,29.91,4,0,9,0.00
2013-10-8,83,72,58,25,19,12,21,14,8,29.92,29.66,13,4,22,0.00
2013-10-9,68,62,52,41,34,26,64,37,21,29.76,29.59,14,7,23,0.00
2013-10-10,67,57,49,43,40,37,73,53,38,30.06,29.76,10,1,17,0.00
2013-10-11,70,59,48,42,39,37,71,49,32,30.17,30.05,6,0,9,0.00
2013-10-12,76,63,49,41,36,-100,63,39,24,30.10,29.90,5,0,10,0.00
2013-10-13,74,66,61,35,32,27,38,28,18,30.09,29.86,14,6,23,0.00
2013-10-14,71,60,48,37,33,27,56,37,24,30.23,30.09,7,1,14,0.00
2013-10-15,71,61,48,32,28,24,46,30,18,30.20,30.09,13,4,23,0.00
2013-10-16,71,60,49,29,25,21,42,27,16,30.31,30.15,8,2,13,0.00
2013-10-17,76,60,46,25,22,19,38,24,12,30.20,30.02,3,0,7,0.00
2013-10-18,77,63,48,26,23,20,35,23,14,30.23,30.07,6,1,11,0.00
2013-10-19,79,63,49,28,22,-100,36,22,12,30.23,30.06,4,0,8,0.00
2013-10-20,81,65,49,24,20,15,30,18,10,30.08,29.93,3,0,8,0.00
2013-10-21,81,65,50,27,23,15,30,20,13,30.15,29.99,4,0,12,0.00
2013-10-22,81,66,53,29,25,23,34,22,13,30.18,30.04,5,0,10,0.00
2013-10-23,81,66,53,28,24,21,32,21,12,30.08,29.96,6,0,10,0.00
2013-10-24,82,69,55,29,24,21,28,19,12,30.05,29.97,2,0,9,0.00
2013-10-25,82,71,55,33,29,24,40,22,13,30.18,30.10,2,0,6,0.00
2013-10-26,83,67,55,32,26,-100,33,23,15,30.26,30.09,3,0,8,0.00
2013-10-27,84,69,57,33,26,22,29,20,11,30.09,29.59,18,5,27,0.00
2013-10-28,68,61,54,36,30,-100,46,33,23,29.85,29.52,25,17,39,0.00
2013-10-29,62,55,48,36,33,30,59,45,30,30.05,29.84,14,8,22,0.00
2013-10-30,64,54,44,37,33,27,66,45,30,30.19,30.05,8,1,13,0.00
2013-10-31,67,55,42,30,27,25,52,36,24,30.31,30.18,5,0,10,0.00
2013-11-1,71,58,44,34,30,25,51,35,24,30.36,30.20,3,0,9,0.00
2013-11-2,73,58,47,32,28,-100,49,33,20,30.22,29.91,3,0,9,0.00
2013-11-3,73,62,50,29,26,24,40,27,17,29.92,29.83,8,1,11,0.00
2013-11-4,61,55,46,32,25,20,47,33,21,30.14,29.85,13,4,19,0.00
2013-11-5,59,51,42,28,16,12,51,26,16,30.42,30.13,12,4,20,0.00
2013-11-6,66,51,38,20,17,14,39,27,15,30.54,30.42,3,0,8,0.00
2013-11-7,69,56,42,25,21,19,41,27,15,30.42,30.20,2,0,5,0.00
2013-11-8,70,57,43,24,21,18,40,26,16,30.22,30.08,3,0,8,0.00
2013-11-9,71,57,44,26,19,-100,39,25,16,30.24,30.14,4,0,7,0.00
2013-11-10,74,59,45,29,24,19,38,27,17,30.31,30.20,2,0,7,0.00
2013-11-11,77,60,47,28,25,20,44,27,14,30.32,30.22,3,0,8,0.00
2013-11-12,76,63,51,27,22,18,29,21,13,30.39,30.26,3,0,9,0.00
2013-11-13,77,65,54,27,22,19,26,20,13,30.26,30.10,2,0,7,0.00
2013-11-14,74,63,49,31,25,20,34,24,18,30.18,29.75,10,1,15,0.00
2013-11-15,72,63,51,28,25,21,35,24,16,29.73,29.62,12,2,19,0.00
2013-11-16,66,57,47,36,30,-100,45,36,28,29.95,29.70,19,7,28,0.00
2013-11-17,65,55,43,39,36,31,63,48,37,30.22,29.94,4,1,10,0.00
2013-11-18,65,55,45,39,37,34,67,51,37,30.27,30.08,2,0,8,0.00
2013-11-19,66,56,49,40,38,35,65,51,36,30.08,29.97,5,0,9,0.00
2013-11-20,65,55,48,42,38,35,64,53,40,29.98,29.88,3,0,10,0.00
2013-11-21,63,53,44,49,44,38,92,73,48,30.13,29.87,10,4,16,0.77
2013-11-22,46,44,42,41,39,37,87,80,74,30.20,30.09,11,6,17,0.31
2013-11-23,46,44,43,42,38,-100,91,83,74,30.29,30.16,8,2,14,0.22
2013-11-24,55,48,43,41,40,38,89,73,53,30.34,30.27,3,0,8,0.01
2013-11-25,62,50,39,42,38,35,88,67,38,30.43,30.33,2,0,7,0.00
2013-11-26,62,51,41,39,35,29,81,57,30,30.48,30.33,3,0,9,0.00
2013-11-27,61,50,42,39,36,33,79,60,36,30.34,30.15,7,1,12,0.00
2013-11-28,60,49,41,39,36,34,83,62,39,30.29,30.15,5,0,8,0.00
2013-11-29,61,50,39,39,36,33,82,60,36,30.40,30.28,3,0,9,0.00
2013-11-30,63,50,40,39,34,-100,80,58,35,30.42,30.30,3,0,7,0.00
2013-12-1,64,50,40,37,34,31,74,55,31,30.48,30.35,1,0,6,0.00
2013-12-2,62,50,40,39,36,33,77,61,38,30.35,29.90,3,0,7,0.00
2013-12-3,68,54,41,41,37,30,82,56,31,29.90,29.51,23,6,32,0.04
2013-12-4,43,38,33,34,18,8,87,47,25,30.22,29.77,15,7,24,0.08
2013-12-5,40,33,25,18,13,9,65,44,30,30.33,30.20,2,0,8,0.00
2013-12-6,40,32,23,20,16,13,76,54,38,30.43,30.25,4,0,9,0.00
2013-12-7,50,40,28,31,20,-100,73,48,23,30.25,29.90,19,8,30,0.00
2013-12-8,40,35,25,13,6,2,55,30,23,30.45,30.18,11,3,20,0.00
2013-12-9,38,32,25,12,4,-1,58,31,19,30.74,30.45,15,6,24,0.00
2013-12-10,44,33,22,14,9,5,57,38,22,30.72,30.46,4,0,8,0.00
2013-12-11,51,38,27,21,17,14,63,44,25,30.59,30.49,2,0,8,0.00
2013-12-12,54,42,31,23,20,18,62,44,24,30.53,30.31,4,0,8,0.00
2013-12-13,55,42,31,25,22,21,67,47,27,30.53,30.28,3,0,7,0.00
2013-12-14,57,47,38,24,21,-100,55,38,25,30.67,30.53,8,2,15,0.00
2013-12-15,61,46,34,28,25,23,67,47,25,30.62,30.46,1,0,5,0.00
2013-12-16,63,49,37,31,28,26,64,45,25,30.53,30.40,2,0,5,0.00
2013-12-17,64,50,40,31,28,26,58,43,24,30.48,30.27,2,0,5,0.00
2013-12-18,59,50,44,33,30,27,59,47,31,30.26,29.81,5,0,8,0.00
2013-12-19,59,51,41,37,32,25,73,48,35,29.88,29.70,16,4,22,0.00
2013-12-20,54,49,41,37,26,15,73,42,28,30.01,29.87,17,8,24,0.00
2013-12-21,63,50,38,31,23,-100,47,36,28,30.19,29.94,12,3,22,0.00
2013-12-22,58,48,36,30,28,26,69,47,31,30.49,30.20,3,0,9,0.00
2013-12-23,61,48,37,33,30,27,68,51,34,30.62,30.48,2,0,9,0.00
2013-12-24,64,50,37,35,32,30,75,51,32,30.50,30.37,3,0,8,0.00
2013-12-25,62,48,38,30,25,19,66,42,20,30.58,30.45,4,0,11,0.00
2013-12-26,63,48,35,21,17,14,46,31,16,30.54,30.41,2,0,6,0.00
2013-12-27,66,50,35,22,17,14,45,29,14,30.48,30.26,1,0,4,0.00
2013-12-28,58,47,39,26,21,-100,54,38,23,30.27,30.12,3,0,8,0.00
2013-12-29,56,49,38,23,15,12,55,26,17,30.44,30.28,13,5,21,0.00
2013-12-30,59,45,34,19,15,12,45,31,16,30.52,30.38,3,0,6,0.00
2013-12-31,58,46,34,21,18,16,50,35,20,30.42,30.29,3,0,6,0.00
2014-1-1,66,50,35,26,22,19,54,36,20,30.44,30.32,3,0,6,0.00
2014-1-2,65,50,39,28,25,22,56,38,22,30.40,30.25,3,0,5,0.00